createdAt,value
2019-01-17T00:00:14.859Z,1.88
2019-01-17T00:05:18.922Z,1.95
2019-01-17T00:10:22.908Z,1.82
2019-01-17T00:15:26.971Z,1.93
2019-01-17T00:20:31.021Z,1.83
2019-01-17T00:25:35.033Z,1.68
2019-01-17T00:30:39.098Z,1.70
2019-01-17T00:35:43.411Z,1.76
2019-01-17T00:40:47.455Z,1.98
2019-01-17T00:45:51.490Z,1.99
2019-01-17T00:50:55.817Z,2.05
2019-01-17T00:55:59.831Z,2.02
2019-01-17T01:01:03.954Z,2.02
2019-01-17T01:06:19.520Z,2.00
2019-01-17T01:11:23.572Z,2.06
2019-01-17T01:16:33.908Z,1.95
2019-01-17T01:21:37.884Z,2.19
2019-01-17T01:26:42.255Z,2.15
2019-01-17T01:31:46.447Z,2.18
2019-01-17T01:36:50.706Z,2.51
2019-01-17T01:41:55.603Z,2.59
2019-01-17T01:46:59.705Z,2.59
2019-01-17T01:52:03.798Z,2.76
2019-01-17T01:57:07.858Z,2.71
2019-01-17T02:02:11.904Z,2.80
2019-01-17T02:07:15.941Z,2.96
2019-01-17T02:12:20.032Z,3.07
2019-01-17T02:17:24.070Z,3.03
2019-01-17T02:22:28.141Z,2.93
2019-01-17T02:27:32.190Z,3.01
2019-01-17T02:32:36.474Z,3.20
2019-01-17T02:37:40.525Z,3.38
2019-01-17T02:42:44.600Z,3.63
2019-01-17T02:47:48.667Z,3.66
2019-01-17T02:52:52.712Z,3.68
2019-01-17T02:57:56.821Z,3.93
2019-01-17T03:03:00.919Z,3.93
2019-01-17T03:08:04.997Z,4.00
2019-01-17T03:13:09.316Z,3.92
2019-01-17T03:18:13.372Z,4.03
2019-01-17T03:23:17.380Z,4.12
2019-01-17T03:28:21.442Z,4.13
2019-01-17T03:33:25.820Z,4.20
2019-01-17T03:38:29.849Z,4.24
2019-01-17T03:43:33.894Z,4.19
2019-01-17T03:48:37.931Z,4.26
2019-01-17T03:53:41.971Z,4.17
2019-01-17T03:58:46.002Z,4.21
2019-01-17T04:03:50.273Z,4.34
2019-01-17T04:08:54.359Z,4.37
2019-01-17T04:13:58.436Z,4.30
2019-01-17T04:19:03.305Z,4.30
2019-01-17T04:24:07.355Z,4.33
2019-01-17T04:29:11.378Z,4.36
2019-01-17T04:34:15.381Z,4.43
2019-01-17T04:39:19.426Z,4.47
2019-01-17T04:44:23.494Z,4.50
2019-01-17T04:49:27.531Z,4.54
2019-01-17T04:54:31.549Z,4.56
2019-01-17T04:59:35.584Z,4.68
2019-01-17T05:04:39.640Z,4.72
2019-01-17T05:09:44.263Z,4.70
2019-01-17T05:14:48.273Z,4.78
2019-01-17T05:19:52.310Z,4.78
2019-01-17T05:24:56.407Z,4.68
2019-01-17T05:30:00.743Z,4.78
2019-01-17T05:35:05.465Z,4.84
2019-01-17T05:40:12.664Z,4.93
2019-01-17T05:45:16.969Z,4.91
2019-01-17T05:50:20.961Z,4.98
2019-01-17T05:55:24.943Z,5.06
2019-01-17T06:00:29.085Z,4.95
2019-01-17T06:05:33.172Z,5.10
2019-01-17T06:10:37.218Z,5.13
2019-01-17T06:15:41.256Z,5.13
2019-01-17T06:20:45.425Z,5.30
2019-01-17T06:25:49.592Z,5.25
2019-01-17T06:30:53.613Z,5.28
2019-01-17T06:35:57.670Z,5.33
2019-01-17T06:41:01.707Z,5.29
2019-01-17T06:46:06.057Z,5.28
2019-01-17T06:51:10.441Z,5.31
2019-01-17T06:56:14.748Z,5.24
2019-01-17T07:01:20.073Z,5.20
2019-01-17T07:06:25.796Z,5.20
2019-01-17T07:11:29.870Z,5.20
2019-01-17T07:16:33.914Z,5.22
2019-01-17T07:21:37.957Z,5.25
2019-01-17T07:26:46.591Z,5.22
2019-01-17T07:31:50.653Z,5.23
2019-01-17T07:36:54.816Z,5.36
2019-01-17T07:41:58.838Z,5.35
2019-01-17T07:47:03.497Z,5.35
2019-01-17T07:52:07.546Z,5.30
2019-01-17T07:57:11.890Z,5.31
2019-01-17T08:02:15.921Z,5.34
2019-01-17T08:07:19.928Z,5.47
2019-01-17T08:12:24.799Z,5.56
2019-01-17T08:17:29.443Z,5.53
2019-01-17T08:22:34.133Z,5.57
2019-01-17T08:27:51.224Z,5.59
2019-01-17T08:32:56.090Z,5.59
2019-01-17T08:38:00.185Z,5.70
2019-01-17T08:43:08.370Z,5.76
2019-01-17T08:48:12.465Z,5.75
2019-01-17T08:53:16.522Z,5.80
2019-01-17T08:58:20.549Z,5.88
2019-01-17T09:03:24.660Z,5.98
2019-01-17T09:08:28.817Z,5.96
2019-01-17T09:13:32.858Z,5.94
2019-01-17T09:18:37.966Z,6.06
2019-01-17T09:23:42.301Z,6.07
2019-01-17T09:28:46.386Z,6.14
2019-01-17T09:33:50.401Z,6.29
2019-01-17T09:38:54.409Z,6.34
2019-01-17T09:43:58.830Z,6.38
2019-01-17T09:49:02.879Z,6.51
2019-01-17T09:54:06.941Z,6.66
2019-01-17T09:59:11.414Z,6.88
2019-01-17T10:04:15.517Z,6.76
2019-01-17T10:09:19.587Z,6.81
2019-01-17T10:14:23.827Z,6.46
2019-01-17T10:20:22.429Z,6.42
2019-01-17T10:26:04.078Z,6.28
2019-01-17T10:31:47.620Z,6.28
2019-01-17T10:37:13.839Z,6.27
2019-01-17T10:42:43.000Z,6.60
2019-01-17T10:48:28.314Z,6.72
2019-01-17T10:54:16.584Z,6.79
2019-01-17T11:00:10.366Z,6.65
2019-01-17T11:06:02.987Z,6.56
2019-01-17T11:11:32.983Z,6.83
2019-01-17T11:17:02.482Z,7.01
2019-01-17T11:22:38.880Z,7.07
2019-01-17T11:28:16.939Z,7.12
2019-01-17T11:34:14.806Z,7.18
2019-01-17T11:39:47.460Z,7.31
2019-01-17T11:45:04.302Z,7.27
2019-01-17T11:50:25.107Z,7.41
2019-01-17T11:55:55.207Z,7.55
2019-01-17T12:01:22.126Z,7.21
2019-01-17T12:06:26.204Z,6.90
2019-01-17T12:11:31.183Z,7.22
2019-01-17T12:16:35.540Z,7.15
2019-01-17T12:21:42.539Z,7.63
2019-01-17T12:26:47.547Z,7.12
2019-01-17T12:31:51.732Z,7.56
2019-01-17T12:36:55.825Z,8.02
2019-01-17T12:41:59.906Z,8.20
2019-01-17T12:47:04.063Z,8.45
2019-01-17T12:52:08.141Z,8.48
2019-01-17T12:57:12.397Z,8.52
2019-01-17T13:02:16.412Z,8.51
2019-01-17T13:07:20.516Z,8.50
2019-01-17T13:12:24.586Z,8.62
2019-01-17T13:17:28.644Z,8.73
2019-01-17T13:22:32.673Z,8.54
2019-01-17T13:27:36.810Z,8.00
2019-01-17T13:32:40.896Z,7.59
2019-01-17T13:37:45.015Z,7.16
2019-01-17T13:42:49.301Z,7.11
2019-01-17T13:47:53.374Z,7.09
2019-01-17T13:52:57.435Z,6.83
2019-01-17T13:58:01.486Z,6.76
2019-01-17T14:03:05.627Z,6.59
2019-01-17T14:08:09.656Z,6.47
2019-01-17T14:13:13.757Z,6.41
2019-01-17T14:18:17.841Z,6.45
2019-01-17T14:23:22.311Z,6.94
2019-01-17T14:28:26.329Z,7.13
2019-01-17T14:33:30.718Z,6.66
2019-01-17T14:38:34.949Z,6.37
2019-01-17T14:43:39.007Z,6.03
2019-01-17T14:48:43.130Z,5.72
2019-01-17T14:53:47.126Z,5.39
2019-01-17T14:58:51.165Z,5.16
2019-01-17T15:03:55.538Z,5.11
2019-01-17T15:08:59.621Z,4.87
2019-01-17T15:14:03.728Z,4.62
2019-01-17T15:19:07.813Z,4.65
2019-01-17T15:24:11.823Z,4.93
2019-01-17T15:29:15.831Z,4.99
2019-01-17T15:34:19.898Z,5.02
2019-01-17T15:39:24.010Z,4.85
2019-01-17T15:44:28.143Z,4.72
2019-01-17T15:49:32.498Z,4.56
2019-01-17T15:54:36.816Z,4.57
2019-01-17T15:59:40.964Z,4.90
2019-01-17T16:04:45.315Z,5.05
2019-01-17T16:09:49.332Z,5.07
2019-01-17T16:14:53.543Z,4.89
2019-01-17T16:19:57.745Z,4.69
2019-01-17T16:25:02.123Z,4.60
2019-01-17T16:30:09.783Z,4.55
2019-01-17T16:35:14.029Z,4.59
2019-01-17T16:40:18.156Z,4.59
2019-01-17T16:45:22.937Z,4.69
2019-01-17T16:50:27.233Z,4.67
2019-01-17T16:55:31.286Z,4.61
2019-01-17T17:00:40.621Z,4.63
2019-01-17T17:05:44.729Z,4.38
2019-01-17T17:10:48.744Z,4.21
2019-01-17T17:15:52.786Z,3.78
2019-01-17T17:20:56.847Z,3.55
2019-01-17T17:26:00.839Z,3.43
2019-01-17T17:31:05.054Z,3.24
2019-01-17T17:36:09.135Z,3.07
2019-01-17T17:41:13.168Z,3.09
2019-01-17T17:46:17.233Z,3.11
2019-01-17T17:51:21.353Z,3.11
2019-01-17T17:56:25.394Z,3.08
2019-01-17T18:01:29.839Z,2.94
2019-01-17T18:06:34.199Z,2.87
2019-01-17T18:11:38.199Z,2.78
2019-01-17T18:16:42.413Z,2.71
2019-01-17T18:21:46.434Z,2.67
2019-01-17T18:26:51.448Z,2.62
2019-01-17T18:31:55.595Z,2.61
2019-01-17T18:37:00.231Z,2.52
2019-01-17T18:42:04.279Z,2.51
2019-01-17T18:47:08.299Z,2.45
2019-01-17T18:52:12.313Z,2.52
2019-01-17T18:57:16.424Z,2.54
2019-01-17T19:02:20.782Z,2.56
2019-01-17T19:07:24.894Z,2.64
2019-01-17T19:12:30.452Z,2.68
2019-01-17T19:17:34.773Z,2.70
2019-01-17T19:22:38.856Z,2.64
2019-01-17T19:27:45.092Z,2.61
2019-01-17T19:32:49.578Z,2.67
2019-01-17T19:37:53.688Z,2.64
2019-01-17T19:43:04.439Z,2.65
2019-01-17T19:48:08.939Z,2.59
2019-01-17T19:53:13.021Z,2.65
2019-01-17T19:58:17.160Z,2.61
2019-01-17T20:03:21.311Z,2.71
2019-01-17T20:08:26.177Z,2.80
2019-01-17T20:13:30.332Z,2.78
2019-01-17T20:18:34.396Z,2.85
2019-01-17T20:23:38.504Z,2.91
2019-01-17T20:28:43.311Z,2.84
2019-01-17T20:33:47.730Z,2.89
2019-01-17T20:38:51.823Z,2.89
2019-01-17T20:43:56.290Z,2.85
2019-01-17T20:49:00.368Z,2.85
2019-01-17T20:54:04.699Z,2.93
2019-01-17T20:59:08.747Z,2.93
2019-01-17T21:04:12.790Z,2.95
2019-01-17T21:09:22.910Z,2.90
2019-01-17T21:14:27.845Z,2.80
2019-01-17T21:19:31.851Z,2.70
2019-01-17T21:24:36.168Z,2.66
2019-01-17T21:29:40.444Z,2.58
2019-01-17T21:34:45.262Z,2.62
2019-01-17T21:39:49.420Z,2.52
2019-01-17T21:44:54.109Z,2.39
2019-01-17T21:49:58.171Z,2.10
2019-01-17T21:55:02.234Z,1.96
2019-01-17T22:00:09.908Z,1.95
2019-01-17T22:05:14.050Z,1.84
2019-01-17T22:10:19.665Z,1.86
2019-01-17T22:15:24.214Z,2.10
2019-01-17T22:20:28.566Z,2.13
2019-01-17T22:25:32.886Z,2.13
2019-01-17T22:30:41.552Z,2.09
2019-01-17T22:35:48.410Z,2.10
2019-01-17T22:40:53.300Z,2.10
2019-01-17T22:46:00.165Z,1.95
2019-01-17T22:51:04.614Z,2.01
2019-01-17T22:56:11.336Z,2.03
2019-01-17T23:01:25.002Z,2.09
2019-01-17T23:06:30.180Z,2.06
2019-01-17T23:11:34.196Z,2.07
2019-01-17T23:16:38.232Z,2.01
2019-01-17T23:21:42.301Z,1.76
2019-01-17T23:26:46.767Z,1.61
2019-01-17T23:31:51.209Z,1.53
2019-01-17T23:36:55.237Z,1.55
2019-01-17T23:41:59.279Z,1.56
2019-01-17T23:47:04.344Z,1.63
2019-01-17T23:52:08.996Z,1.66
2019-01-17T23:57:13.979Z,1.67
